createdAt,value
2023-04-06T00:02:11.445Z,4.85
2023-04-06T00:04:39.714Z,4.85
2023-04-06T00:07:07.787Z,4.86
2023-04-06T00:09:35.764Z,4.85
2023-04-06T00:12:04.450Z,4.85
2023-04-06T00:14:32.625Z,4.85
2023-04-06T00:17:00.806Z,4.84
2023-04-06T00:19:28.881Z,4.83
2023-04-06T00:21:57.076Z,4.83
2023-04-06T00:24:25.571Z,4.83
2023-04-06T00:26:53.517Z,4.82
2023-04-06T00:29:21.908Z,4.82
2023-04-06T00:31:50.736Z,4.81
2023-04-06T00:34:18.708Z,4.79
2023-04-06T00:36:46.757Z,4.80
2023-04-06T00:39:14.875Z,4.79
2023-04-06T00:41:46.895Z,4.79
2023-04-06T00:44:15.089Z,4.78
2023-04-06T00:46:43.183Z,4.77
2023-04-06T00:49:11.220Z,4.76
2023-04-06T00:51:39.413Z,4.76
2023-04-06T00:54:07.687Z,4.76
2023-04-06T00:56:36.792Z,4.76
2023-04-06T00:59:04.951Z,4.76
2023-04-06T01:01:34.026Z,4.76
2023-04-06T01:04:06.132Z,4.75
2023-04-06T01:06:39.834Z,4.75
2023-04-06T01:09:08.523Z,4.75
2023-04-06T01:11:37.267Z,4.75
2023-04-06T01:14:06.936Z,4.75
2023-04-06T01:17:00.900Z,4.75
2023-04-06T01:19:32.262Z,4.74
2023-04-06T01:22:00.744Z,4.74
2023-04-06T01:24:31.581Z,4.74
2023-04-06T01:27:19.816Z,4.72
2023-04-06T01:30:08.407Z,4.71
2023-04-06T01:32:46.904Z,4.69
2023-04-06T01:35:19.299Z,4.67
2023-04-06T01:37:55.826Z,4.66
2023-04-06T01:40:28.703Z,4.65
2023-04-06T01:42:58.317Z,4.62
2023-04-06T01:45:35.586Z,4.62
2023-04-06T01:48:12.175Z,4.60
2023-04-06T01:50:40.578Z,4.57
2023-04-06T01:53:09.859Z,4.54
2023-04-06T01:55:39.532Z,4.51
2023-04-06T01:58:39.587Z,4.48
2023-04-06T02:01:08.647Z,4.44
2023-04-06T02:03:48.002Z,4.41
2023-04-06T02:06:16.282Z,4.39
2023-04-06T02:08:44.882Z,4.36
2023-04-06T02:11:12.918Z,4.36
2023-04-06T02:13:45.053Z,4.36
2023-04-06T02:16:13.158Z,4.35
2023-04-06T02:18:41.689Z,4.36
2023-04-06T02:21:10.257Z,4.36
2023-04-06T02:23:38.250Z,4.35
2023-04-06T02:26:06.331Z,4.34
2023-04-06T02:28:34.300Z,4.33
2023-04-06T02:31:03.188Z,4.30
2023-04-06T02:33:32.542Z,4.28
2023-04-06T02:36:01.120Z,4.25
2023-04-06T02:38:30.486Z,4.24
2023-04-06T02:41:00.615Z,4.21
2023-04-06T02:43:29.802Z,4.18
2023-04-06T02:46:07.654Z,4.15
2023-04-06T02:48:39.085Z,4.12
2023-04-06T02:51:07.341Z,4.09
2023-04-06T02:53:36.341Z,4.04
2023-04-06T02:56:05.036Z,4.01
2023-04-06T02:58:41.716Z,3.98
2023-04-06T03:01:09.715Z,3.95
2023-04-06T03:03:38.409Z,3.92
2023-04-06T03:06:10.645Z,3.90
2023-04-06T03:08:38.716Z,3.89
2023-04-06T03:11:07.312Z,3.87
2023-04-06T03:13:42.549Z,3.85
2023-04-06T03:16:11.895Z,3.84
2023-04-06T03:18:40.639Z,3.84
2023-04-06T03:21:08.622Z,3.83
2023-04-06T03:23:45.179Z,3.81
2023-04-06T03:26:13.246Z,3.80
2023-04-06T03:28:41.519Z,3.79
2023-04-06T03:31:09.542Z,3.81
2023-04-06T03:33:52.526Z,3.82
2023-04-06T03:36:24.047Z,3.82
2023-04-06T03:38:54.622Z,3.83
2023-04-06T03:41:22.699Z,3.83
2023-04-06T03:44:03.972Z,3.84
2023-04-06T03:46:32.145Z,3.86
2023-04-06T03:49:00.891Z,3.86
2023-04-06T03:51:29.443Z,3.88
2023-04-06T03:53:57.434Z,3.90
2023-04-06T03:56:25.381Z,3.91
2023-04-06T03:58:55.791Z,3.93
2023-04-06T04:01:23.859Z,3.94
2023-04-06T04:03:52.450Z,3.96
2023-04-06T04:06:20.858Z,3.97
2023-04-06T04:08:48.773Z,3.98
2023-04-06T04:11:17.117Z,3.99
2023-04-06T04:13:46.825Z,4.00
2023-04-06T04:16:15.052Z,4.00
2023-04-06T04:18:44.826Z,4.00
2023-04-06T04:21:12.893Z,4.00
2023-04-06T04:23:40.973Z,3.99
2023-04-06T04:26:09.575Z,3.98
2023-04-06T04:28:37.454Z,3.96
2023-04-06T04:31:05.819Z,3.96
2023-04-06T04:33:35.231Z,3.94
2023-04-06T04:36:06.794Z,3.94
2023-04-06T04:38:39.769Z,3.91
2023-04-06T04:41:08.253Z,3.86
2023-04-06T04:43:36.849Z,3.82
2023-04-06T04:46:06.020Z,3.78
2023-04-06T04:48:42.412Z,3.72
2023-04-06T04:51:10.538Z,3.69
2023-04-06T04:54:04.874Z,3.67
2023-04-06T04:56:34.018Z,3.63
2023-04-06T04:59:10.164Z,3.59
2023-04-06T05:01:53.532Z,3.55
2023-04-06T05:04:25.210Z,3.52
2023-04-06T05:07:08.031Z,3.49
2023-04-06T05:09:36.913Z,3.46
2023-04-06T05:12:05.234Z,3.44
2023-04-06T05:14:36.309Z,3.41
2023-04-06T05:17:05.455Z,3.41
2023-04-06T05:19:33.589Z,3.40
2023-04-06T05:22:02.530Z,3.40
2023-04-06T05:24:36.343Z,3.38
2023-04-06T05:27:06.980Z,3.35
2023-04-06T05:29:35.627Z,3.31
2023-04-06T05:32:03.940Z,3.28
2023-04-06T05:34:34.056Z,3.27
2023-04-06T05:37:04.499Z,3.25
2023-04-06T05:39:32.507Z,3.22
2023-04-06T05:42:03.956Z,3.20
2023-04-06T05:44:45.486Z,3.19
2023-04-06T05:47:16.140Z,3.16
2023-04-06T05:49:44.721Z,3.13
2023-04-06T05:52:17.607Z,3.11
2023-04-06T05:54:47.625Z,3.09
2023-04-06T05:57:17.651Z,3.08
2023-04-06T05:59:46.642Z,3.08
2023-04-06T06:02:15.552Z,3.09
2023-04-06T06:04:45.835Z,3.10
2023-04-06T06:07:15.468Z,3.07
2023-04-06T06:09:59.945Z,3.07
2023-04-06T06:12:32.594Z,3.06
2023-04-06T06:15:01.600Z,3.05
2023-04-06T06:17:30.203Z,3.03
2023-04-06T06:19:58.674Z,3.02
2023-04-06T06:22:28.599Z,2.98
2023-04-06T06:24:56.889Z,2.96
2023-04-06T06:27:26.260Z,2.93
2023-04-06T06:29:54.557Z,2.89
2023-04-06T06:32:24.135Z,2.83
2023-04-06T06:34:53.352Z,2.77
2023-04-06T06:37:21.757Z,2.77
2023-04-06T06:39:50.469Z,2.78
2023-04-06T06:42:20.587Z,2.81
2023-04-06T06:45:14.644Z,2.86
2023-04-06T06:47:42.878Z,2.90
2023-04-06T06:50:13.178Z,2.95
2023-04-06T06:52:41.572Z,2.99
2023-04-06T06:55:10.545Z,3.02
2023-04-06T06:57:39.528Z,3.05
2023-04-06T07:00:09.987Z,3.10
2023-04-06T07:02:41.052Z,3.13
2023-04-06T07:05:19.890Z,3.16
2023-04-06T07:07:55.493Z,3.21
2023-04-06T07:10:23.650Z,3.25
2023-04-06T07:12:51.501Z,3.28
2023-04-06T07:15:19.623Z,3.32
2023-04-06T07:17:47.995Z,3.34
2023-04-06T07:20:16.567Z,3.38
2023-04-06T07:22:45.963Z,3.45
2023-04-06T07:25:13.883Z,3.49
2023-04-06T07:27:43.313Z,3.52
2023-04-06T07:30:12.774Z,3.54
2023-04-06T07:32:41.193Z,3.56
2023-04-06T07:35:10.141Z,3.59
2023-04-06T07:37:38.108Z,3.62
2023-04-06T07:40:06.807Z,3.65
2023-04-06T07:42:36.122Z,3.68
2023-04-06T07:45:06.124Z,3.69
2023-04-06T07:47:34.736Z,3.71
2023-04-06T07:50:03.001Z,3.71
2023-04-06T07:52:33.005Z,3.70
2023-04-06T07:55:01.501Z,3.68
2023-04-06T07:57:29.384Z,3.67
2023-04-06T07:59:57.260Z,3.66
2023-04-06T08:02:25.535Z,3.65
2023-04-06T08:04:53.986Z,3.64
2023-04-06T08:07:22.181Z,3.65
2023-04-06T08:09:50.167Z,3.64
2023-04-06T08:12:18.244Z,3.64
2023-04-06T08:14:46.313Z,3.64
2023-04-06T08:17:15.526Z,3.63
2023-04-06T08:19:45.358Z,3.62
2023-04-06T08:22:14.567Z,3.60
2023-04-06T08:24:42.411Z,3.57
2023-04-06T08:27:10.600Z,3.55
2023-04-06T08:29:38.545Z,3.53
2023-04-06T08:32:07.461Z,3.52
2023-04-06T08:34:35.538Z,3.52
2023-04-06T08:37:03.531Z,3.50
2023-04-06T08:39:31.997Z,3.50
2023-04-06T08:42:01.162Z,3.50
2023-04-06T08:44:29.880Z,3.51
2023-04-06T08:46:58.577Z,3.51
2023-04-06T08:49:27.175Z,3.51
2023-04-06T08:51:56.266Z,3.52
2023-04-06T08:54:25.360Z,3.52
2023-04-06T08:56:53.958Z,3.54
2023-04-06T08:59:22.104Z,3.55
2023-04-06T09:01:50.559Z,3.54
2023-04-06T09:04:19.043Z,3.52
2023-04-06T09:06:47.480Z,3.51
2023-04-06T09:09:15.715Z,3.50
2023-04-06T09:11:47.953Z,3.49
2023-04-06T09:14:16.623Z,3.49
2023-04-06T09:16:46.359Z,3.45
2023-04-06T09:19:14.433Z,3.41
2023-04-06T09:21:42.542Z,3.41
2023-04-06T09:24:11.156Z,3.40
2023-04-06T09:26:46.385Z,3.38
2023-04-06T09:29:25.062Z,3.36
2023-04-06T09:31:53.201Z,3.33
2023-04-06T09:34:23.868Z,3.31
2023-04-06T09:36:53.374Z,3.28
2023-04-06T09:39:24.617Z,3.27
2023-04-06T09:41:53.405Z,3.27
2023-04-06T09:44:21.459Z,3.26
2023-04-06T09:46:59.062Z,3.26
2023-04-06T09:49:29.337Z,3.24
2023-04-06T09:52:00.352Z,3.22
2023-04-06T09:54:32.284Z,3.22
2023-04-06T09:57:15.800Z,3.23
2023-04-06T10:00:14.398Z,3.22
2023-04-06T10:02:47.520Z,3.20
2023-04-06T10:05:25.094Z,3.20
2023-04-06T10:08:00.303Z,3.18
2023-04-06T10:10:29.975Z,3.19
2023-04-06T10:12:58.838Z,3.20
2023-04-06T10:15:28.508Z,3.21
2023-04-06T10:17:57.066Z,3.21
2023-04-06T10:20:30.162Z,3.21
2023-04-06T10:23:06.084Z,3.21
2023-04-06T10:25:34.463Z,3.21
2023-04-06T10:28:09.395Z,3.21
2023-04-06T10:30:43.011Z,3.18
2023-04-06T10:33:18.054Z,3.16
2023-04-06T10:35:46.052Z,3.13
2023-04-06T10:38:21.144Z,3.11
2023-04-06T10:40:49.755Z,3.06
2023-04-06T10:43:22.188Z,3.05
2023-04-06T10:45:58.093Z,3.02
2023-04-06T10:48:26.664Z,3.02
2023-04-06T10:50:54.735Z,3.02
2023-04-06T10:53:27.212Z,3.01
2023-04-06T10:55:56.886Z,2.99
2023-04-06T10:58:28.572Z,2.97
2023-04-06T11:00:57.094Z,2.97
2023-04-06T11:03:25.137Z,2.97
2023-04-06T11:05:53.009Z,2.96
2023-04-06T11:08:24.754Z,2.97
2023-04-06T11:10:52.740Z,2.99
2023-04-06T11:13:20.737Z,3.02
2023-04-06T11:15:50.220Z,3.03
2023-04-06T11:18:18.508Z,3.05
2023-04-06T11:20:50.384Z,3.06
2023-04-06T11:23:26.304Z,3.06
2023-04-06T11:25:55.225Z,3.04
2023-04-06T11:28:23.292Z,3.02
2023-04-06T11:30:51.295Z,3.02
2023-04-06T11:33:23.543Z,3.02
2023-04-06T11:35:51.750Z,3.02
2023-04-06T11:38:21.970Z,3.03
2023-04-06T11:40:54.019Z,3.04
2023-04-06T11:43:31.707Z,3.06
2023-04-06T11:46:03.533Z,3.07
2023-04-06T11:48:32.243Z,3.07
2023-04-06T11:51:02.315Z,3.07
2023-04-06T11:53:30.962Z,3.07
2023-04-06T11:56:00.791Z,3.07
2023-04-06T11:58:28.766Z,3.06
2023-04-06T12:01:04.255Z,3.06
2023-04-06T12:03:32.423Z,3.06
2023-04-06T12:06:01.080Z,3.07
2023-04-06T12:08:29.160Z,3.09
2023-04-06T12:10:57.119Z,3.10
2023-04-06T12:13:25.709Z,3.11
2023-04-06T12:15:53.830Z,3.12
2023-04-06T12:18:21.866Z,3.13
2023-04-06T12:20:49.851Z,3.15
2023-04-06T12:23:17.833Z,3.16
2023-04-06T12:25:46.378Z,3.17
2023-04-06T12:28:14.460Z,3.16
2023-04-06T12:30:42.768Z,3.17
2023-04-06T12:33:11.064Z,3.19
2023-04-06T12:35:39.975Z,3.19
2023-04-06T12:38:08.319Z,3.21
2023-04-06T12:40:39.782Z,3.22
2023-04-06T12:43:07.957Z,3.22
2023-04-06T12:45:36.128Z,3.22
2023-04-06T12:48:04.152Z,3.21
2023-04-06T12:50:32.067Z,3.19
2023-04-06T12:53:00.112Z,3.17
2023-04-06T12:55:30.481Z,3.16
2023-04-06T12:57:58.972Z,3.14
2023-04-06T13:00:27.505Z,3.14
2023-04-06T13:02:56.093Z,3.14
2023-04-06T13:05:24.232Z,3.14
2023-04-06T13:07:52.295Z,3.14
2023-04-06T13:10:20.780Z,3.13
2023-04-06T13:12:48.670Z,3.11
2023-04-06T13:15:17.038Z,3.10
2023-04-06T13:17:45.152Z,3.08
2023-04-06T13:20:13.304Z,3.08
2023-04-06T13:22:41.244Z,3.07
2023-04-06T13:25:09.453Z,3.06
2023-04-06T13:27:37.549Z,3.04
2023-04-06T13:30:06.227Z,3.01
2023-04-06T13:32:34.424Z,2.99
2023-04-06T13:35:04.617Z,2.97
2023-04-06T13:37:32.719Z,2.97
2023-04-06T13:40:00.904Z,2.95
2023-04-06T13:42:29.781Z,2.95
2023-04-06T13:44:57.847Z,2.94
2023-04-06T13:47:26.279Z,2.96
2023-04-06T13:49:54.407Z,2.97
2023-04-06T13:52:22.745Z,2.99
2023-04-06T13:54:51.385Z,3.02
2023-04-06T13:57:19.367Z,3.04
2023-04-06T13:59:47.335Z,3.04
2023-04-06T14:02:15.820Z,3.04
2023-04-06T14:04:43.987Z,3.04
2023-04-06T14:07:11.857Z,3.04
2023-04-06T14:09:39.892Z,3.05
2023-04-06T14:12:07.919Z,3.06
2023-04-06T14:14:36.190Z,3.05
2023-04-06T14:17:04.235Z,3.06
2023-04-06T14:19:33.171Z,3.06
2023-04-06T14:22:01.248Z,3.06
2023-04-06T14:24:29.218Z,3.06
2023-04-06T14:26:57.791Z,3.07
2023-04-06T14:29:25.879Z,3.09
2023-04-06T14:31:53.738Z,3.11
2023-04-06T14:34:22.345Z,3.13
2023-04-06T14:36:50.522Z,3.16
2023-04-06T14:39:18.602Z,3.16
2023-04-06T14:41:49.798Z,3.16
2023-04-06T14:44:18.852Z,3.15
2023-04-06T14:46:47.085Z,3.14
2023-04-06T14:49:15.304Z,3.13
2023-04-06T14:51:43.532Z,3.13
2023-04-06T14:54:11.769Z,3.14
2023-04-06T14:56:39.858Z,3.14
2023-04-06T14:59:07.884Z,3.14
2023-04-06T15:01:37.243Z,3.14
2023-04-06T15:04:05.751Z,3.12
2023-04-06T15:06:33.886Z,3.11
2023-04-06T15:09:01.770Z,3.10
2023-04-06T15:11:29.815Z,3.07
2023-04-06T15:13:57.708Z,3.04
2023-04-06T15:16:26.606Z,3.02
2023-04-06T15:18:54.880Z,2.99
2023-04-06T15:21:22.707Z,2.97
2023-04-06T15:23:51.540Z,2.96
2023-04-06T15:26:19.618Z,2.95
2023-04-06T15:28:47.692Z,2.95
2023-04-06T15:31:36.022Z,2.95
2023-04-06T15:34:09.146Z,2.97
2023-04-06T15:36:37.811Z,2.98
2023-04-06T15:39:09.617Z,2.99
2023-04-06T15:41:37.859Z,3.00
2023-04-06T15:44:06.333Z,3.01
2023-04-06T15:46:34.524Z,3.02
2023-04-06T15:49:02.510Z,3.00
2023-04-06T15:51:30.478Z,3.01
2023-04-06T15:53:58.869Z,3.02
2023-04-06T15:56:27.029Z,3.02
2023-04-06T15:58:55.580Z,3.03
2023-04-06T16:01:23.518Z,3.04
2023-04-06T16:03:51.602Z,3.04
2023-04-06T16:06:19.534Z,3.03
2023-04-06T16:08:47.571Z,3.04
2023-04-06T16:11:16.215Z,3.05
2023-04-06T16:13:47.268Z,3.05
2023-04-06T16:16:21.502Z,3.05
2023-04-06T16:18:49.403Z,3.05
2023-04-06T16:21:18.817Z,3.07
2023-04-06T16:23:47.474Z,3.07
2023-04-06T16:26:18.078Z,3.07
2023-04-06T16:28:47.668Z,3.07
2023-04-06T16:31:20.295Z,3.07
2023-04-06T16:33:49.256Z,3.06
2023-04-06T16:36:27.967Z,3.05
2023-04-06T16:38:56.878Z,3.03
2023-04-06T16:41:25.155Z,3.02
2023-04-06T16:43:54.144Z,3.02
2023-04-06T16:46:22.217Z,3.01
2023-04-06T16:48:50.193Z,3.00
2023-04-06T16:51:18.987Z,2.99
2023-04-06T16:53:48.384Z,2.99
2023-04-06T16:56:16.579Z,2.98
2023-04-06T16:58:45.776Z,2.97
2023-04-06T17:01:21.137Z,2.96
2023-04-06T17:03:49.247Z,2.96
2023-04-06T17:06:17.812Z,2.96
2023-04-06T17:08:46.626Z,2.96
2023-04-06T17:11:18.673Z,2.96
2023-04-06T17:13:49.214Z,2.96
2023-04-06T17:16:18.403Z,2.95
2023-04-06T17:18:46.655Z,2.94
2023-04-06T17:21:17.191Z,2.90
2023-04-06T17:23:46.647Z,2.87
2023-04-06T17:26:15.610Z,2.85
2023-04-06T17:28:43.555Z,2.83
2023-04-06T17:31:12.595Z,2.80
2023-04-06T17:33:41.461Z,2.77
2023-04-06T17:36:12.703Z,2.76
2023-04-06T17:38:44.042Z,2.73
2023-04-06T17:41:13.050Z,2.70
2023-04-06T17:43:41.093Z,2.67
2023-04-06T17:46:10.676Z,2.65
2023-04-06T17:48:38.935Z,2.62
2023-04-06T17:51:06.888Z,2.60
2023-04-06T17:53:34.862Z,2.57
2023-04-06T17:56:05.834Z,2.57
2023-04-06T17:58:34.084Z,2.56
2023-04-06T18:01:06.270Z,2.55
2023-04-06T18:03:34.473Z,2.55
2023-04-06T18:06:09.170Z,2.54
2023-04-06T18:08:37.144Z,2.53
2023-04-06T18:11:06.322Z,2.53
2023-04-06T18:13:35.395Z,2.54
2023-04-06T18:16:07.530Z,2.56
2023-04-06T18:18:35.694Z,2.59
2023-04-06T18:21:04.477Z,2.61
2023-04-06T18:23:33.610Z,2.62
2023-04-06T18:26:01.558Z,2.62
2023-04-06T18:28:31.369Z,2.64
2023-04-06T18:30:59.919Z,2.64
2023-04-06T18:33:27.934Z,2.64
2023-04-06T18:35:58.560Z,2.65
2023-04-06T18:38:26.744Z,2.66
2023-04-06T18:40:54.713Z,2.67
2023-04-06T18:43:22.699Z,2.69
2023-04-06T18:45:50.748Z,2.70
2023-04-06T18:48:18.738Z,2.71
2023-04-06T18:51:00.230Z,2.73
2023-04-06T18:53:28.807Z,2.75
2023-04-06T18:55:57.846Z,2.77
2023-04-06T18:58:26.277Z,2.78
2023-04-06T19:00:54.704Z,2.80
2023-04-06T19:03:22.730Z,2.81
2023-04-06T19:05:51.036Z,2.83
2023-04-06T19:08:18.898Z,2.84
2023-04-06T19:10:49.392Z,2.86
2023-04-06T19:13:17.923Z,2.87
2023-04-06T19:15:46.407Z,2.88
2023-04-06T19:18:14.401Z,2.90
2023-04-06T19:20:42.282Z,2.93
2023-04-06T19:23:10.135Z,2.94
2023-04-06T19:25:38.918Z,2.96
2023-04-06T19:28:09.145Z,2.98
2023-04-06T19:30:37.968Z,2.99
2023-04-06T19:33:06.073Z,3.01
2023-04-06T19:35:34.195Z,3.03
2023-04-06T19:38:02.173Z,3.05
2023-04-06T19:40:30.244Z,3.05
2023-04-06T19:42:58.118Z,3.06
2023-04-06T19:45:27.112Z,3.09
2023-04-06T19:47:55.028Z,3.10
2023-04-06T19:50:22.943Z,3.11
2023-04-06T19:52:53.278Z,3.13
2023-04-06T19:55:21.126Z,3.13
2023-04-06T19:57:48.962Z,3.15
2023-04-06T20:00:17.421Z,3.16
2023-04-06T20:02:46.172Z,3.17
2023-04-06T20:05:14.365Z,3.18
2023-04-06T20:07:42.458Z,3.18
2023-04-06T20:10:10.992Z,3.19
2023-04-06T20:12:39.364Z,3.21
2023-04-06T20:15:08.035Z,3.21
2023-04-06T20:17:36.283Z,3.22
2023-04-06T20:20:05.190Z,3.23
2023-04-06T20:22:33.177Z,3.24
2023-04-06T20:25:01.049Z,3.25
2023-04-06T20:27:29.114Z,3.25
2023-04-06T20:29:56.982Z,3.26
2023-04-06T20:32:24.951Z,3.27
2023-04-06T20:34:53.676Z,3.28
2023-04-06T20:37:21.546Z,3.28
2023-04-06T20:39:49.420Z,3.28
2023-04-06T20:42:18.136Z,3.29
2023-04-06T20:44:46.914Z,3.30
2023-04-06T20:47:14.867Z,3.30
2023-04-06T20:49:42.830Z,3.30
2023-04-06T20:52:10.863Z,3.30
2023-04-06T20:54:38.916Z,3.31
2023-04-06T20:57:06.859Z,3.30
2023-04-06T20:59:34.833Z,3.30
2023-04-06T21:02:02.877Z,3.31
2023-04-06T21:04:31.574Z,3.31
2023-04-06T21:06:59.791Z,3.30
2023-04-06T21:09:28.268Z,3.30
2023-04-06T21:11:56.239Z,3.30
2023-04-06T21:14:24.635Z,3.30
2023-04-06T21:16:53.622Z,3.30
2023-04-06T21:19:24.770Z,3.29
2023-04-06T21:21:52.733Z,3.29
2023-04-06T21:24:20.814Z,3.29
2023-04-06T21:26:49.092Z,3.28
2023-04-06T21:29:17.066Z,3.28
2023-04-06T21:31:45.042Z,3.28
2023-04-06T21:34:13.376Z,3.28
2023-04-06T21:36:41.812Z,3.27
2023-04-06T21:39:09.997Z,3.27
2023-04-06T21:41:38.111Z,3.27
2023-04-06T21:44:06.548Z,3.27
2023-04-06T21:46:34.468Z,3.28
2023-04-06T21:49:02.388Z,3.28
2023-04-06T21:51:30.272Z,3.28
2023-04-06T21:53:58.116Z,3.27
2023-04-06T21:56:26.286Z,3.27
2023-04-06T21:58:54.398Z,3.27
2023-04-06T22:01:22.974Z,3.27
2023-04-06T22:03:50.991Z,3.27
2023-04-06T22:06:19.206Z,3.27
2023-04-06T22:08:49.251Z,3.26
2023-04-06T22:11:17.836Z,3.26
2023-04-06T22:13:45.912Z,3.27
2023-04-06T22:16:14.847Z,3.26
2023-04-06T22:18:42.986Z,3.26
2023-04-06T22:21:11.218Z,3.25
2023-04-06T22:23:42.489Z,3.25
2023-04-06T22:26:11.618Z,3.25
2023-04-06T22:28:39.588Z,3.25
2023-04-06T22:31:07.545Z,3.25
2023-04-06T22:33:35.739Z,3.24
2023-04-06T22:36:04.260Z,3.24
2023-04-06T22:38:32.292Z,3.23
2023-04-06T22:41:00.120Z,3.24
2023-04-06T22:43:28.046Z,3.23
2023-04-06T22:45:56.337Z,3.23
2023-04-06T22:48:24.463Z,3.22
2023-04-06T22:50:52.886Z,3.22
2023-04-06T22:53:20.785Z,3.22
2023-04-06T22:55:48.735Z,3.22
2023-04-06T22:58:16.711Z,3.22
2023-04-06T23:00:44.898Z,3.21
2023-04-06T23:03:12.858Z,3.21
2023-04-06T23:05:41.230Z,3.20
2023-04-06T23:08:09.425Z,3.19
2023-04-06T23:10:41.846Z,3.19
2023-04-06T23:13:10.590Z,3.19
2023-04-06T23:15:38.567Z,3.19
2023-04-06T23:18:06.893Z,3.18
2023-04-06T23:20:34.922Z,3.17
2023-04-06T23:23:02.940Z,3.17
2023-04-06T23:25:31.093Z,3.16
2023-04-06T23:28:00.104Z,3.16
2023-04-06T23:30:28.048Z,3.16
2023-04-06T23:32:56.122Z,3.16
2023-04-06T23:35:24.100Z,3.15
2023-04-06T23:37:52.186Z,3.15
2023-04-06T23:40:20.874Z,3.15
2023-04-06T23:42:48.835Z,3.15
2023-04-06T23:45:16.912Z,3.15
2023-04-06T23:47:46.100Z,3.15
2023-04-06T23:50:14.291Z,3.14
2023-04-06T23:52:42.164Z,3.14
2023-04-06T23:55:10.963Z,3.15
2023-04-06T23:57:39.040Z,3.14
